createdAt,value
2022-08-18T00:01:11.823Z,20.10
2022-08-18T00:03:57.393Z,20.10
2022-08-18T00:06:29.593Z,20.10
2022-08-18T00:08:59.510Z,20.00
2022-08-18T00:11:41.621Z,20.00
2022-08-18T00:14:14.575Z,20.00
2022-08-18T00:16:52.241Z,20.00
2022-08-18T00:19:20.443Z,19.90
2022-08-18T00:22:08.431Z,19.90
2022-08-18T00:24:48.623Z,19.90
2022-08-18T00:27:21.701Z,19.80
2022-08-18T00:29:52.769Z,19.80
2022-08-18T00:32:23.789Z,19.70
2022-08-18T00:34:52.289Z,19.70
2022-08-18T00:37:20.559Z,19.70
2022-08-18T00:39:48.593Z,19.70
2022-08-18T00:42:27.814Z,19.60
2022-08-18T00:44:59.461Z,19.60
2022-08-18T00:47:41.301Z,19.60
2022-08-18T00:50:19.218Z,19.50
2022-08-18T00:52:53.844Z,19.50
2022-08-18T00:55:22.960Z,19.50
2022-08-18T00:57:55.397Z,19.40
2022-08-18T01:00:23.749Z,19.40
2022-08-18T01:02:56.920Z,19.40
2022-08-18T01:05:33.810Z,19.30
2022-08-18T01:08:02.195Z,19.30
2022-08-18T01:10:30.331Z,19.20
2022-08-18T01:13:00.183Z,19.20
2022-08-18T01:15:30.401Z,19.20
2022-08-18T01:18:17.621Z,19.10
2022-08-18T01:21:11.987Z,19.10
2022-08-18T01:23:41.698Z,19.00
2022-08-18T01:26:09.488Z,19.00
2022-08-18T01:28:40.640Z,19.00
2022-08-18T01:31:10.731Z,19.00
2022-08-18T01:33:42.309Z,19.00
2022-08-18T01:36:14.540Z,18.90
2022-08-18T01:38:44.308Z,18.90
2022-08-18T01:41:26.356Z,18.90
2022-08-18T01:43:57.260Z,18.80
2022-08-18T01:46:25.634Z,18.80
2022-08-18T01:48:53.736Z,18.80
2022-08-18T01:51:39.342Z,18.80
2022-08-18T01:54:11.837Z,18.80
2022-08-18T01:56:40.704Z,18.80
2022-08-18T01:59:10.377Z,18.80
2022-08-18T02:01:43.345Z,18.70
2022-08-18T02:04:36.772Z,18.70
2022-08-18T02:07:09.440Z,18.70
2022-08-18T02:09:41.236Z,18.70
2022-08-18T02:12:09.818Z,18.70
2022-08-18T02:14:38.189Z,18.60
2022-08-18T02:17:08.892Z,18.60
2022-08-18T02:19:38.904Z,18.60
2022-08-18T02:22:08.233Z,18.60
2022-08-18T02:24:38.121Z,18.60
2022-08-18T02:27:06.989Z,18.60
2022-08-18T02:29:35.808Z,18.60
2022-08-18T02:32:04.490Z,18.60
2022-08-18T02:34:32.497Z,18.60
2022-08-18T02:37:00.716Z,18.50
2022-08-18T02:39:29.840Z,18.50
2022-08-18T02:41:59.218Z,18.50
2022-08-18T02:44:27.342Z,18.50
2022-08-18T02:46:55.995Z,18.50
2022-08-18T02:49:24.073Z,18.50
2022-08-18T02:51:52.436Z,18.50
2022-08-18T02:54:23.103Z,18.50
2022-08-18T02:56:52.496Z,18.40
2022-08-18T02:59:23.158Z,18.40
2022-08-18T03:01:53.706Z,18.40
2022-08-18T03:04:29.203Z,18.40
2022-08-18T03:07:00.512Z,18.40
2022-08-18T03:09:29.225Z,18.30
2022-08-18T03:11:57.475Z,18.30
2022-08-18T03:14:27.141Z,18.30
2022-08-18T03:16:55.544Z,18.30
2022-08-18T03:19:25.406Z,18.20
2022-08-18T03:21:54.940Z,18.20
2022-08-18T03:24:25.248Z,18.20
2022-08-18T03:26:55.652Z,18.20
2022-08-18T03:29:31.331Z,18.10
2022-08-18T03:32:02.845Z,18.10
2022-08-18T03:34:31.564Z,18.10
2022-08-18T03:37:00.732Z,18.10
2022-08-18T03:39:29.637Z,18.00
2022-08-18T03:42:01.567Z,18.00
2022-08-18T03:44:32.218Z,18.00
2022-08-18T03:47:02.945Z,18.00
2022-08-18T03:49:31.726Z,18.00
2022-08-18T03:52:00.948Z,17.90
2022-08-18T03:54:33.363Z,17.90
2022-08-18T03:57:01.921Z,17.80
2022-08-18T03:59:31.748Z,17.80
2022-08-18T04:02:04.426Z,17.80
2022-08-18T04:04:32.645Z,17.80
2022-08-18T04:07:05.485Z,17.80
2022-08-18T04:09:35.560Z,17.70
2022-08-18T04:12:15.211Z,17.80
2022-08-18T04:14:47.794Z,17.70
2022-08-18T04:17:18.384Z,17.70
2022-08-18T04:19:46.932Z,17.70
2022-08-18T04:22:17.469Z,17.70
2022-08-18T04:24:46.780Z,17.70
2022-08-18T04:27:14.960Z,17.70
2022-08-18T04:29:42.933Z,17.80
2022-08-18T04:32:10.886Z,17.80
2022-08-18T04:34:40.362Z,17.90
2022-08-18T04:37:09.524Z,18.00
2022-08-18T04:39:37.806Z,18.10
2022-08-18T04:42:06.086Z,18.20
2022-08-18T04:44:34.466Z,18.20
2022-08-18T04:47:02.982Z,18.30
2022-08-18T04:49:32.104Z,18.40
2022-08-18T04:52:34.067Z,18.40
2022-08-18T04:55:07.649Z,18.40
2022-08-18T04:57:39.069Z,18.50
2022-08-18T05:00:13.554Z,18.50
2022-08-18T05:02:41.610Z,18.50
2022-08-18T05:05:11.060Z,18.60
2022-08-18T05:07:46.612Z,18.60
2022-08-18T05:10:17.444Z,18.70
2022-08-18T05:12:48.726Z,18.70
2022-08-18T05:15:17.699Z,18.80
2022-08-18T05:17:50.353Z,18.80
2022-08-18T05:20:19.853Z,18.80
2022-08-18T05:22:49.181Z,18.90
2022-08-18T05:25:17.412Z,18.90
2022-08-18T05:27:45.493Z,18.90
2022-08-18T05:30:14.923Z,18.90
2022-08-18T05:32:47.953Z,18.90
2022-08-18T05:35:23.007Z,18.90
2022-08-18T05:38:15.597Z,18.90
2022-08-18T05:40:46.020Z,18.90
2022-08-18T05:43:16.041Z,18.90
2022-08-18T05:45:44.437Z,18.90
2022-08-18T05:48:12.475Z,18.90
2022-08-18T05:50:40.507Z,18.90
2022-08-18T05:53:15.576Z,18.90
2022-08-18T05:56:09.833Z,18.90
2022-08-18T05:58:41.430Z,19.00
2022-08-18T06:01:15.788Z,19.10
2022-08-18T06:03:48.859Z,19.10
2022-08-18T06:06:20.447Z,19.10
2022-08-18T06:09:11.396Z,19.10
2022-08-18T06:11:39.481Z,19.10
2022-08-18T06:14:07.595Z,19.10
2022-08-18T06:16:50.364Z,19.10
2022-08-18T06:19:33.339Z,19.00
2022-08-18T06:22:12.329Z,19.00
2022-08-18T06:24:50.024Z,19.00
2022-08-18T06:27:26.908Z,19.00
2022-08-18T06:30:06.990Z,19.00
2022-08-18T06:32:48.793Z,19.00
2022-08-18T06:35:25.529Z,19.00
2022-08-18T06:38:23.519Z,19.10
2022-08-18T06:41:02.911Z,19.10
2022-08-18T06:43:33.439Z,19.20
2022-08-18T06:46:02.322Z,19.30
2022-08-18T06:48:38.077Z,19.30
2022-08-18T06:51:08.968Z,19.40
2022-08-18T06:53:57.201Z,19.40
2022-08-18T06:56:33.177Z,19.50
2022-08-18T06:59:20.900Z,19.60
2022-08-18T07:01:52.908Z,19.60
2022-08-18T07:04:39.545Z,19.70
2022-08-18T07:07:17.246Z,19.80
2022-08-18T07:09:45.557Z,19.80
2022-08-18T07:12:22.703Z,19.80
2022-08-18T07:14:53.408Z,19.90
2022-08-18T07:17:42.290Z,20.00
2022-08-18T07:20:26.035Z,20.10
2022-08-18T07:22:56.756Z,20.10
2022-08-18T07:25:31.935Z,20.20
2022-08-18T07:28:02.670Z,20.20
2022-08-18T07:30:35.974Z,20.30
2022-08-18T07:33:14.000Z,20.30
2022-08-18T07:35:47.562Z,20.30
2022-08-18T07:41:16.733Z,20.50
2022-08-18T07:43:56.559Z,20.60
2022-08-18T07:46:32.499Z,20.80
2022-08-18T07:49:01.529Z,20.90
2022-08-18T07:51:45.808Z,20.90
2022-08-18T07:54:48.394Z,21.10
2022-08-18T07:57:20.946Z,21.30
2022-08-18T07:59:58.969Z,21.30
2022-08-18T08:02:36.238Z,21.40
2022-08-18T08:05:15.976Z,21.40
2022-08-18T08:07:50.931Z,21.40
2022-08-18T08:10:37.509Z,21.40
2022-08-18T08:13:37.076Z,21.40
2022-08-18T08:16:17.602Z,21.40
2022-08-18T08:18:54.294Z,21.40
2022-08-18T08:21:26.619Z,21.40
2022-08-18T08:24:01.036Z,21.40
2022-08-18T08:26:44.405Z,21.40
2022-08-18T08:29:23.233Z,21.40
2022-08-18T08:31:59.179Z,21.30
2022-08-18T08:34:32.322Z,21.40
2022-08-18T08:37:04.228Z,21.50
2022-08-18T08:39:40.760Z,21.50
2022-08-18T08:42:31.816Z,21.60
2022-08-18T08:45:07.693Z,21.60
2022-08-18T08:47:43.710Z,21.60
2022-08-18T08:50:17.497Z,21.70
2022-08-18T08:52:48.587Z,21.70
2022-08-18T08:55:21.390Z,21.80
2022-08-18T08:57:54.609Z,21.80
2022-08-18T09:00:22.857Z,21.90
2022-08-18T09:03:31.594Z,21.90
2022-08-18T09:06:10.682Z,22.00
2022-08-18T09:08:56.149Z,22.00
2022-08-18T09:11:43.713Z,22.10
2022-08-18T09:14:44.211Z,22.20
2022-08-18T09:17:33.866Z,22.40
2022-08-18T09:20:27.073Z,22.50
2022-08-18T09:23:00.991Z,22.70
2022-08-18T09:25:34.979Z,22.90
2022-08-18T09:28:12.609Z,23.00
2022-08-18T09:30:47.592Z,23.20
2022-08-18T09:33:46.781Z,23.50
2022-08-18T09:36:33.946Z,23.70
2022-08-18T09:39:27.314Z,23.80
2022-08-18T09:41:59.275Z,24.00
2022-08-18T09:48:28.076Z,24.50
2022-08-18T09:51:32.122Z,24.80
2022-08-18T09:57:19.195Z,24.70
2022-08-18T10:00:24.323Z,24.80
2022-08-18T10:09:36.552Z,25.40
2022-08-18T10:12:30.043Z,25.70
2022-08-18T10:15:15.571Z,25.90
2022-08-18T10:18:17.820Z,26.20
2022-08-18T10:20:57.106Z,26.40
2022-08-18T10:23:49.502Z,26.80
2022-08-18T10:27:09.683Z,27.00
2022-08-18T10:29:55.157Z,26.90
2022-08-18T10:32:54.215Z,27.00
2022-08-18T10:35:56.401Z,27.50
2022-08-18T10:38:30.973Z,28.40
2022-08-18T10:41:10.043Z,28.60
2022-08-18T10:43:55.838Z,28.50
2022-08-18T10:49:25.264Z,28.20
2022-08-18T10:52:29.960Z,28.30
2022-08-18T10:55:20.885Z,28.30
2022-08-18T10:58:09.767Z,28.20
2022-08-18T11:00:52.644Z,28.10
2022-08-18T11:03:56.033Z,28.20
2022-08-18T11:06:26.161Z,28.10
2022-08-18T11:08:57.857Z,27.90
2022-08-18T11:11:41.995Z,27.80
2022-08-18T11:14:38.687Z,27.70
2022-08-18T11:17:16.001Z,27.50
2022-08-18T11:19:46.729Z,27.40
2022-08-18T11:22:31.815Z,27.40
2022-08-18T11:25:03.255Z,27.30
2022-08-18T11:27:35.918Z,27.30
2022-08-18T11:30:07.146Z,27.30
2022-08-18T11:32:39.370Z,27.10
2022-08-18T11:35:31.747Z,27.10
2022-08-18T11:38:01.891Z,27.10
2022-08-18T11:43:39.141Z,27.50
2022-08-18T11:46:28.155Z,27.60
2022-08-18T11:49:00.488Z,27.70
2022-08-18T11:51:33.073Z,27.70
2022-08-18T11:54:04.885Z,27.50
2022-08-18T11:56:35.963Z,27.40
2022-08-18T11:59:07.892Z,27.20
2022-08-18T12:01:42.483Z,27.10
2022-08-18T12:04:16.974Z,27.00
2022-08-18T12:07:00.444Z,27.00
2022-08-18T12:10:16.293Z,26.90
2022-08-18T12:12:28.289Z,26.90
2022-08-18T12:15:10.353Z,26.90
2022-08-18T12:17:44.569Z,26.70
2022-08-18T12:20:21.139Z,26.60
2022-08-18T12:22:50.602Z,26.50
2022-08-18T12:25:25.243Z,26.40
2022-08-18T12:27:54.239Z,26.20
2022-08-18T12:30:22.181Z,26.20
2022-08-18T12:32:55.911Z,26.20
2022-08-18T12:35:28.896Z,26.20
2022-08-18T12:38:05.147Z,26.40
2022-08-18T12:40:41.859Z,26.60
2022-08-18T12:43:09.792Z,26.70
2022-08-18T12:45:39.022Z,26.70
2022-08-18T12:48:08.176Z,26.70
2022-08-18T12:50:50.237Z,27.00
2022-08-18T12:53:30.708Z,27.10
2022-08-18T12:56:08.555Z,27.30
2022-08-18T12:58:40.596Z,27.60
2022-08-18T13:01:10.850Z,27.60
2022-08-18T13:03:38.844Z,27.70
2022-08-18T13:06:11.535Z,28.00
2022-08-18T13:08:48.129Z,28.30
2022-08-18T13:11:23.850Z,28.50
2022-08-18T13:13:56.245Z,28.80
2022-08-18T13:16:38.787Z,28.90
2022-08-18T13:19:13.970Z,29.00
2022-08-18T13:21:43.019Z,29.10
2022-08-18T13:24:13.000Z,29.20
2022-08-18T13:26:45.952Z,29.20
2022-08-18T13:29:19.093Z,29.10
2022-08-18T13:31:55.279Z,29.00
2022-08-18T13:34:24.297Z,28.80
2022-08-18T13:36:52.421Z,28.70
2022-08-18T13:39:23.347Z,28.60
2022-08-18T13:41:54.440Z,28.50
2022-08-18T13:44:25.700Z,28.50
2022-08-18T13:46:55.451Z,28.50
2022-08-18T13:49:30.049Z,28.40
2022-08-18T13:52:00.976Z,28.50
2022-08-18T13:54:35.911Z,28.50
2022-08-18T13:57:04.871Z,28.60
2022-08-18T13:59:34.665Z,28.70
2022-08-18T14:02:08.641Z,28.80
2022-08-18T14:04:38.607Z,28.80
2022-08-18T14:07:10.952Z,29.00
2022-08-18T14:09:41.042Z,29.20
2022-08-18T14:12:22.956Z,29.40
2022-08-18T14:14:53.643Z,29.60
2022-08-18T14:17:23.018Z,29.50
2022-08-18T14:20:14.762Z,29.40
2022-08-18T14:23:08.002Z,29.30
2022-08-18T14:25:54.895Z,29.10
2022-08-18T14:28:24.933Z,28.90
2022-08-18T14:30:54.777Z,28.70
2022-08-18T14:33:34.377Z,28.70
2022-08-18T14:36:13.137Z,28.60
2022-08-18T14:38:41.705Z,28.70
2022-08-18T14:41:13.089Z,28.80
2022-08-18T14:44:04.490Z,28.90
2022-08-18T14:46:32.643Z,28.90
2022-08-18T14:49:04.005Z,28.90
2022-08-18T14:51:33.438Z,28.90
2022-08-18T14:54:02.005Z,29.00
2022-08-18T14:56:33.252Z,29.00
2022-08-18T14:59:07.611Z,29.00
2022-08-18T15:01:36.906Z,29.10
2022-08-18T15:04:18.284Z,29.20
2022-08-18T15:06:56.702Z,29.30
2022-08-18T15:09:26.700Z,29.30
2022-08-18T15:11:58.387Z,29.40
2022-08-18T15:14:32.931Z,29.40
2022-08-18T15:17:02.115Z,29.30
2022-08-18T15:19:58.970Z,29.20
2022-08-18T15:22:35.728Z,29.20
2022-08-18T15:25:23.342Z,29.10
2022-08-18T15:27:54.085Z,28.90
2022-08-18T15:30:22.576Z,28.80
2022-08-18T15:32:51.361Z,28.80
2022-08-18T15:35:20.739Z,28.80
2022-08-18T15:37:51.087Z,28.80
2022-08-18T15:40:30.751Z,28.70
2022-08-18T15:43:10.076Z,28.70
2022-08-18T15:45:57.801Z,28.60
2022-08-18T15:48:28.043Z,28.70
2022-08-18T15:50:56.373Z,28.70
2022-08-18T15:53:29.629Z,28.80
2022-08-18T15:55:58.394Z,28.70
2022-08-18T15:58:33.460Z,28.60
2022-08-18T16:01:02.506Z,28.50
2022-08-18T16:03:50.016Z,28.40
2022-08-18T16:06:23.527Z,28.30
2022-08-18T16:08:55.911Z,28.30
2022-08-18T16:11:29.217Z,28.20
2022-08-18T16:13:59.996Z,28.10
2022-08-18T16:16:35.617Z,28.10
2022-08-18T16:19:05.914Z,27.90
2022-08-18T16:21:34.286Z,27.80
2022-08-18T16:24:02.232Z,27.70
2022-08-18T16:26:30.175Z,27.70
2022-08-18T16:29:01.724Z,27.60
2022-08-18T16:31:30.159Z,27.50
2022-08-18T16:33:59.087Z,27.40
2022-08-18T16:36:27.146Z,27.40
2022-08-18T16:38:56.106Z,27.40
2022-08-18T16:41:27.288Z,27.20
2022-08-18T16:43:56.262Z,27.20
2022-08-18T16:46:28.109Z,27.00
2022-08-18T16:48:57.934Z,27.00
2022-08-18T16:51:28.425Z,26.90
2022-08-18T16:53:56.964Z,26.90
2022-08-18T16:56:26.854Z,26.80
2022-08-18T16:59:12.563Z,26.70
2022-08-18T17:02:00.272Z,26.70
2022-08-18T17:04:33.368Z,26.60
2022-08-18T17:07:02.945Z,26.60
2022-08-18T17:09:30.890Z,26.40
2022-08-18T17:11:58.868Z,26.30
2022-08-18T17:14:29.300Z,26.30
2022-08-18T17:17:00.240Z,26.20
2022-08-18T17:19:31.144Z,26.10
2022-08-18T17:21:59.116Z,26.00
2022-08-18T17:24:32.105Z,25.90
2022-08-18T17:27:16.610Z,25.80
2022-08-18T17:30:03.042Z,25.80
2022-08-18T17:32:41.561Z,25.70
2022-08-18T17:35:14.053Z,25.70
2022-08-18T17:37:49.138Z,25.60
2022-08-18T17:40:20.994Z,25.60
2022-08-18T17:42:50.493Z,25.50
2022-08-18T17:45:21.825Z,25.50
2022-08-18T17:47:57.730Z,25.40
2022-08-18T17:50:48.548Z,25.40
2022-08-18T17:53:17.578Z,25.30
2022-08-18T17:55:48.338Z,25.20
2022-08-18T17:58:21.779Z,25.20
2022-08-18T18:00:49.718Z,25.10
2022-08-18T18:03:19.242Z,25.00
2022-08-18T18:05:54.145Z,25.00
2022-08-18T18:08:22.170Z,24.90
2022-08-18T18:11:03.963Z,24.90
2022-08-18T18:13:34.367Z,24.90
2022-08-18T18:16:19.700Z,24.80
2022-08-18T18:18:59.852Z,24.80
2022-08-18T18:21:53.481Z,24.80
2022-08-18T18:24:23.870Z,24.70
2022-08-18T18:26:53.138Z,24.70
2022-08-18T18:29:28.224Z,24.70
2022-08-18T18:32:01.809Z,24.60
2022-08-18T18:34:39.370Z,24.60
2022-08-18T18:37:25.485Z,24.50
2022-08-18T18:39:58.633Z,24.40
2022-08-18T18:42:30.275Z,24.40
2022-08-18T18:45:00.287Z,24.30
2022-08-18T18:47:48.794Z,24.30
2022-08-18T18:50:28.674Z,24.20
2022-08-18T18:53:08.404Z,24.10
2022-08-18T18:55:46.741Z,24.00
2022-08-18T18:58:27.332Z,24.00
2022-08-18T19:01:00.093Z,23.90
2022-08-18T19:03:36.456Z,23.80
2022-08-18T19:06:28.479Z,23.80
2022-08-18T19:09:04.867Z,23.70
2022-08-18T19:11:43.599Z,23.70
2022-08-18T19:14:18.019Z,23.60
2022-08-18T19:16:52.303Z,23.50
2022-08-18T19:19:37.921Z,23.40
2022-08-18T19:22:15.032Z,23.30
2022-08-18T19:24:53.464Z,23.20
2022-08-18T19:27:27.837Z,23.20
2022-08-18T19:29:59.909Z,23.10
2022-08-18T19:32:36.444Z,23.00
2022-08-18T19:35:12.315Z,23.00
2022-08-18T19:37:58.134Z,23.00
2022-08-18T19:40:32.415Z,22.90
2022-08-18T19:43:04.743Z,22.80
2022-08-18T19:45:37.643Z,22.90
2022-08-18T19:48:16.329Z,22.90
2022-08-18T19:50:50.833Z,22.90
2022-08-18T19:53:44.183Z,22.90
2022-08-18T19:56:25.511Z,22.90
2022-08-18T19:59:22.774Z,22.90
2022-08-18T20:02:09.216Z,22.90
2022-08-18T20:04:52.652Z,22.90
2022-08-18T20:07:54.802Z,22.90
2022-08-18T20:10:40.366Z,22.80
2022-08-18T20:13:27.480Z,22.80
2022-08-18T20:16:11.048Z,22.80
2022-08-18T20:18:42.065Z,22.80
2022-08-18T20:21:47.723Z,22.70
2022-08-18T20:24:43.905Z,22.70
2022-08-18T20:27:32.934Z,22.60
2022-08-18T20:30:32.700Z,22.50
2022-08-18T20:33:18.123Z,22.40
2022-08-18T20:35:53.402Z,22.40
2022-08-18T20:38:33.764Z,22.30
2022-08-18T20:41:42.403Z,22.30
2022-08-18T20:44:53.091Z,22.30
2022-08-18T20:47:43.357Z,22.30
2022-08-18T20:50:36.248Z,22.20
2022-08-18T20:53:13.533Z,22.20
2022-08-18T20:55:53.144Z,22.20
2022-08-18T20:58:34.627Z,22.20
2022-08-18T21:01:04.583Z,22.20
2022-08-18T21:03:36.976Z,22.10
2022-08-18T21:06:06.357Z,22.10
2022-08-18T21:08:37.478Z,22.10
2022-08-18T21:11:09.245Z,22.00
2022-08-18T21:13:47.575Z,21.90
2022-08-18T21:16:38.656Z,21.90
2022-08-18T21:19:13.868Z,21.80
2022-08-18T21:21:49.732Z,21.70
2022-08-18T21:24:30.833Z,21.70
2022-08-18T21:27:00.374Z,21.60
2022-08-18T21:29:36.492Z,21.50
2022-08-18T21:32:22.202Z,21.50
2022-08-18T21:34:50.247Z,21.50
2022-08-18T21:37:19.590Z,21.40
2022-08-18T21:39:52.865Z,21.40
2022-08-18T21:42:27.474Z,21.30
2022-08-18T21:44:56.659Z,21.30
2022-08-18T21:47:31.818Z,21.30
2022-08-18T21:50:09.852Z,21.30
2022-08-18T21:52:40.970Z,21.20
2022-08-18T21:55:17.928Z,21.20
2022-08-18T21:57:56.981Z,21.20
2022-08-18T22:00:28.387Z,21.20
2022-08-18T22:03:15.829Z,21.20
2022-08-18T22:05:58.824Z,21.10
2022-08-18T22:08:30.521Z,21.10
2022-08-18T22:12:00.384Z,21.10
2022-08-18T22:14:36.094Z,21.10
2022-08-18T22:17:26.900Z,21.00
2022-08-18T22:19:56.358Z,21.00
2022-08-18T22:22:41.861Z,21.00
2022-08-18T22:25:12.983Z,21.00
2022-08-18T22:27:41.078Z,20.90
2022-08-18T22:30:09.666Z,20.90
2022-08-18T22:32:39.300Z,20.90
2022-08-18T22:35:09.663Z,20.90
2022-08-18T22:37:47.505Z,20.90
2022-08-18T22:40:21.721Z,20.80
2022-08-18T22:42:50.385Z,20.80
2022-08-18T22:45:18.815Z,20.80
2022-08-18T22:47:46.780Z,20.80
2022-08-18T22:50:16.464Z,20.80
2022-08-18T22:52:48.282Z,20.80
2022-08-18T22:55:21.746Z,20.80
2022-08-18T22:57:54.762Z,20.80
2022-08-18T23:00:25.700Z,20.90
2022-08-18T23:02:54.038Z,20.80
2022-08-18T23:05:23.680Z,20.80
2022-08-18T23:07:51.854Z,20.80
2022-08-18T23:10:20.175Z,20.70
2022-08-18T23:12:49.336Z,20.60
2022-08-18T23:15:19.160Z,20.70
2022-08-18T23:17:47.086Z,20.60
2022-08-18T23:20:19.454Z,20.60
2022-08-18T23:22:49.283Z,20.50
2022-08-18T23:25:17.339Z,20.50
2022-08-18T23:27:45.265Z,20.50
2022-08-18T23:30:13.631Z,20.40
2022-08-18T23:32:41.535Z,20.40
2022-08-18T23:35:10.360Z,20.40
2022-08-18T23:37:39.479Z,20.40
2022-08-18T23:40:12.824Z,20.30
2022-08-18T23:42:40.892Z,20.30
2022-08-18T23:45:10.145Z,20.20
2022-08-18T23:47:38.193Z,20.20
2022-08-18T23:50:07.626Z,20.20
2022-08-18T23:52:35.555Z,20.10
2022-08-18T23:55:05.635Z,20.10
2022-08-18T23:57:35.966Z,20.10
